sensor_id;sensor_type;location;lat;lon;timestamp;pressure;altitude;pressure_sealevel;temperature;humidity
50282;BME280;36176;51.506;10.272;2024-01-25T00:00:44;100155.25;;;7.87;79.18
50282;BME280;36176;51.506;10.272;2024-01-25T00:03:11;100159.75;;;7.85;79.62
50282;BME280;36176;51.506;10.272;2024-01-25T00:05:39;100155.31;;;7.86;79.45
50282;BME280;36176;51.506;10.272;2024-01-25T00:08:06;100155.34;;;7.84;79.73
50282;BME280;36176;51.506;10.272;2024-01-25T00:10:33;100169.22;;;7.93;78.56
50282;BME280;36176;51.506;10.272;2024-01-25T00:13:00;100164.88;;;7.90;78.93
50282;BME280;36176;51.506;10.272;2024-01-25T00:15:28;100174.63;;;7.88;79.26
50282;BME280;36176;51.506;10.272;2024-01-25T00:17:55;100169.41;;;7.85;79.34
50282;BME280;36176;51.506;10.272;2024-01-25T00:20:22;100169.41;;;7.85;79.00
50282;BME280;36176;51.506;10.272;2024-01-25T00:22:49;100167.69;;;7.84;79.31
50282;BME280;36176;51.506;10.272;2024-01-25T00:25:20;100161.50;;;7.85;79.30
50282;BME280;36176;51.506;10.272;2024-01-25T00:27:47;100164.19;;;7.83;78.50
50282;BME280;36176;51.506;10.272;2024-01-25T00:30:15;100161.53;;;7.83;78.96
50282;BME280;36176;51.506;10.272;2024-01-25T00:32:42;100152.78;;;7.81;79.54
50282;BME280;36176;51.506;10.272;2024-01-25T00:35:09;100150.13;;;7.83;79.70
50282;BME280;36176;51.506;10.272;2024-01-25T00:37:37;100154.50;;;7.82;79.33
50282;BME280;36176;51.506;10.272;2024-01-25T00:40:05;100148.41;;;7.80;79.23
50282;BME280;36176;51.506;10.272;2024-01-25T00:42:39;100148.38;;;7.82;78.99
50282;BME280;36176;51.506;10.272;2024-01-25T00:45:08;100146.69;;;7.79;79.04
50282;BME280;36176;51.506;10.272;2024-01-25T00:47:36;100143.28;;;7.76;80.11
50282;BME280;36176;51.506;10.272;2024-01-25T00:50:04;100153.81;;;7.76;80.31
50282;BME280;36176;51.506;10.272;2024-01-25T00:52:32;100152.06;;;7.75;80.51
50282;BME280;36176;51.506;10.272;2024-01-25T00:54:59;100157.38;;;7.73;80.59
50282;BME280;36176;51.506;10.272;2024-01-25T00:57:28;100152.16;;;7.72;80.94
50282;BME280;36176;51.506;10.272;2024-01-25T00:59:56;100142.56;;;7.67;81.40
50282;BME280;36176;51.506;10.272;2024-01-25T01:02:23;100145.31;;;7.64;81.17
50282;BME280;36176;51.506;10.272;2024-01-25T01:04:52;100154.94;;;7.65;81.50
50282;BME280;36176;51.506;10.272;2024-01-25T01:07:19;100155.84;;;7.64;81.60
50282;BME280;36176;51.506;10.272;2024-01-25T01:09:47;100156.72;;;7.65;81.35
50282;BME280;36176;51.506;10.272;2024-01-25T01:12:14;100164.59;;;7.66;81.16
50282;BME280;36176;51.506;10.272;2024-01-25T01:14:41;100161.03;;;7.67;81.41
50282;BME280;36176;51.506;10.272;2024-01-25T01:17:08;100161.97;;;7.66;81.25
50282;BME280;36176;51.506;10.272;2024-01-25T01:19:35;100158.38;;;7.69;80.54
50282;BME280;36176;51.506;10.272;2024-01-25T01:22:03;100161.88;;;7.70;80.98
50282;BME280;36176;51.506;10.272;2024-01-25T01:24:30;100155.75;;;7.69;80.85
50282;BME280;36176;51.506;10.272;2024-01-25T01:26:57;100154.81;;;7.70;80.83
50282;BME280;36176;51.506;10.272;2024-01-25T01:29:24;100163.59;;;7.71;80.83
50282;BME280;36176;51.506;10.272;2024-01-25T01:31:51;100154.00;;;7.68;81.55
50282;BME280;36176;51.506;10.272;2024-01-25T01:34:19;100159.31;;;7.66;81.47
50282;BME280;36176;51.506;10.272;2024-01-25T01:36:47;100160.19;;;7.67;81.36
50282;BME280;36176;51.506;10.272;2024-01-25T01:39:14;100161.06;;;7.66;81.59
50282;BME280;36176;51.506;10.272;2024-01-25T01:41:41;100159.38;;;7.63;83.32
50282;BME280;36176;51.506;10.272;2024-01-25T01:44:11;100149.06;;;7.54;84.05
50282;BME280;36176;51.506;10.272;2024-01-25T01:46:38;100158.81;;;7.51;83.87
50282;BME280;36176;51.506;10.272;2024-01-25T01:49:07;100156.25;;;7.48;84.35
50282;BME280;36176;51.506;10.272;2024-01-25T01:51:35;100165.06;;;7.46;84.32
50282;BME280;36176;51.506;10.272;2024-01-25T01:54:06;100163.31;;;7.47;83.98
50282;BME280;36176;51.506;10.272;2024-01-25T01:56:33;100178.28;;;7.45;84.11
50282;BME280;36176;51.506;10.272;2024-01-25T01:59:04;100171.22;;;7.47;84.31
50282;BME280;36176;51.506;10.272;2024-01-25T02:01:32;100165.97;;;7.45;84.00
50282;BME280;36176;51.506;10.272;2024-01-25T02:04:00;100147.53;;;7.44;83.68
50282;BME280;36176;51.506;10.272;2024-01-25T02:06:27;100144.06;;;7.42;83.27
50282;BME280;36176;51.506;10.272;2024-01-25T02:08:55;100148.56;;;7.38;83.50
50282;BME280;36176;51.506;10.272;2024-01-25T02:11:22;100152.22;;;7.33;83.43
50282;BME280;36176;51.506;10.272;2024-01-25T02:13:49;100156.56;;;7.34;83.62
50282;BME280;36176;51.506;10.272;2024-01-25T02:16:17;100160.91;;;7.36;83.74
50282;BME280;36176;51.506;10.272;2024-01-25T02:18:45;100177.56;;;7.38;83.39
50282;BME280;36176;51.506;10.272;2024-01-25T02:21:13;100170.47;;;7.40;83.39
50282;BME280;36176;51.506;10.272;2024-01-25T02:23:40;100175.69;;;7.42;83.28
50282;BME280;36176;51.506;10.272;2024-01-25T02:26:07;100180.13;;;7.41;83.45
50282;BME280;36176;51.506;10.272;2024-01-25T02:28:35;100185.31;;;7.44;83.26
50282;BME280;36176;51.506;10.272;2024-01-25T02:31:03;100192.41;;;7.42;82.75
50282;BME280;36176;51.506;10.272;2024-01-25T02:33:30;100187.91;;;7.46;82.45
50282;BME280;36176;51.506;10.272;2024-01-25T02:35:58;100186.13;;;7.48;81.71
50282;BME280;36176;51.506;10.272;2024-01-25T02:38:25;100182.66;;;7.46;81.89
50282;BME280;36176;51.506;10.272;2024-01-25T02:40:52;100176.44;;;7.49;81.55
50282;BME280;36176;51.506;10.272;2024-01-25T02:43:19;100197.44;;;7.52;81.26
50282;BME280;36176;51.506;10.272;2024-01-25T02:45:46;100191.38;;;7.50;81.60
50282;BME280;36176;51.506;10.272;2024-01-25T02:48:14;100171.25;;;7.45;80.43
50282;BME280;36176;51.506;10.272;2024-01-25T02:50:41;100178.19;;;7.50;81.38
50282;BME280;36176;51.506;10.272;2024-01-25T02:53:08;100177.38;;;7.46;81.55
50282;BME280;36176;51.506;10.272;2024-01-25T02:55:35;100169.53;;;7.43;81.38
50282;BME280;36176;51.506;10.272;2024-01-25T02:58:03;100176.63;;;7.41;81.40
50282;BME280;36176;51.506;10.272;2024-01-25T03:00:30;100169.66;;;7.37;81.49
50282;BME280;36176;51.506;10.272;2024-01-25T03:02:58;100170.59;;;7.36;81.17
50282;BME280;36176;51.506;10.272;2024-01-25T03:05:25;100170.66;;;7.33;81.25
50282;BME280;36176;51.506;10.272;2024-01-25T03:07:53;100174.19;;;7.32;81.78
50282;BME280;36176;51.506;10.272;2024-01-25T03:10:20;100177.66;;;7.34;81.18
50282;BME280;36176;51.506;10.272;2024-01-25T03:12:48;100173.25;;;7.34;81.81
50282;BME280;36176;51.506;10.272;2024-01-25T03:15:15;100165.41;;;7.33;81.50
50282;BME280;36176;51.506;10.272;2024-01-25T03:17:42;100168.03;;;7.33;81.22
50282;BME280;36176;51.506;10.272;2024-01-25T03:20:10;100164.47;;;7.34;81.37
50282;BME280;36176;51.506;10.272;2024-01-25T03:22:37;100150.44;;;7.33;81.03
50282;BME280;36176;51.506;10.272;2024-01-25T03:25:04;100151.38;;;7.31;81.24
50282;BME280;36176;51.506;10.272;2024-01-25T03:27:31;100147.06;;;7.27;80.92
50282;BME280;36176;51.506;10.272;2024-01-25T03:29:59;100147.03;;;7.28;81.35
50282;BME280;36176;51.506;10.272;2024-01-25T03:32:26;100153.19;;;7.27;81.04
50282;BME280;36176;51.506;10.272;2024-01-25T03:34:56;100149.69;;;7.27;80.78
50282;BME280;36176;51.506;10.272;2024-01-25T03:37:23;100155.06;;;7.22;81.17
50282;BME280;36176;51.506;10.272;2024-01-25T03:39:51;100167.53;;;7.15;81.26
50282;BME280;36176;51.506;10.272;2024-01-25T03:42:18;100163.16;;;7.14;81.19
50282;BME280;36176;51.506;10.272;2024-01-25T03:44:47;100171.94;;;7.13;81.01
50282;BME280;36176;51.506;10.272;2024-01-25T03:47:14;100188.56;;;7.17;80.23
50282;BME280;36176;51.506;10.272;2024-01-25T03:49:41;100195.66;;;7.13;81.04
50282;BME280;36176;51.506;10.272;2024-01-25T03:52:08;100191.28;;;7.14;80.87
50282;BME280;36176;51.506;10.272;2024-01-25T03:54:35;100197.50;;;7.11;80.77
50282;BME280;36176;51.506;10.272;2024-01-25T03:57:03;100202.03;;;7.05;81.53
50282;BME280;36176;51.506;10.272;2024-01-25T03:59:30;100203.75;;;7.06;81.70
50282;BME280;36176;51.506;10.272;2024-01-25T04:01:58;100188.78;;;7.06;81.28
50282;BME280;36176;51.506;10.272;2024-01-25T04:04:25;100198.53;;;7.04;81.74
50282;BME280;36176;51.506;10.272;2024-01-25T04:06:52;100199.34;;;7.06;81.58
50282;BME280;36176;51.506;10.272;2024-01-25T04:09:20;100195.09;;;6.99;81.72
50282;BME280;36176;51.506;10.272;2024-01-25T04:11:47;100196.00;;;6.98;81.72
50282;BME280;36176;51.506;10.272;2024-01-25T04:14:15;100195.31;;;6.90;81.73
50282;BME280;36176;51.506;10.272;2024-01-25T04:16:42;100194.66;;;6.78;82.64
50282;BME280;36176;51.506;10.272;2024-01-25T04:19:09;100202.66;;;6.74;82.40
50282;BME280;36176;51.506;10.272;2024-01-25T04:21:37;100199.25;;;6.67;82.33
50282;BME280;36176;51.506;10.272;2024-01-25T04:24:05;100205.44;;;6.65;82.67
50282;BME280;36176;51.506;10.272;2024-01-25T04:26:32;100198.56;;;6.59;82.78
50282;BME280;36176;51.506;10.272;2024-01-25T04:29:00;100201.19;;;6.57;82.54
50282;BME280;36176;51.506;10.272;2024-01-25T04:31:27;100197.78;;;6.54;82.94
50282;BME280;36176;51.506;10.272;2024-01-25T04:33:54;100205.69;;;6.52;83.46
50282;BME280;36176;51.506;10.272;2024-01-25T04:36:22;100203.13;;;6.49;83.01
50282;BME280;36176;51.506;10.272;2024-01-25T04:38:49;100195.19;;;6.51;83.10
50282;BME280;36176;51.506;10.272;2024-01-25T04:41:16;100214.53;;;6.50;83.46
50282;BME280;36176;51.506;10.272;2024-01-25T04:43:43;100214.44;;;6.54;83.64
50282;BME280;36176;51.506;10.272;2024-01-25T04:46:12;100213.50;;;6.57;83.10
50282;BME280;36176;51.506;10.272;2024-01-25T04:48:39;100217.91;;;6.56;83.65
50282;BME280;36176;51.506;10.272;2024-01-25T04:51:06;100223.19;;;6.56;83.57
50282;BME280;36176;51.506;10.272;2024-01-25T04:53:33;100227.53;;;6.57;83.67
50282;BME280;36176;51.506;10.272;2024-01-25T04:56:01;100227.44;;;6.64;83.00
50282;BME280;36176;51.506;10.272;2024-01-25T04:58:28;100221.25;;;6.65;83.50
50282;BME280;36176;51.506;10.272;2024-01-25T05:00:55;100222.19;;;6.62;83.09
50282;BME280;36176;51.506;10.272;2024-01-25T05:03:22;100223.00;;;6.66;83.04
50282;BME280;36176;51.506;10.272;2024-01-25T05:05:51;100225.56;;;6.69;82.83
50282;BME280;36176;51.506;10.272;2024-01-25T05:08:18;100230.78;;;6.72;82.56
50282;BME280;36176;51.506;10.272;2024-01-25T05:10:45;100230.00;;;6.67;83.03
50282;BME280;36176;51.506;10.272;2024-01-25T05:13:12;100226.53;;;6.65;82.73
50282;BME280;36176;51.506;10.272;2024-01-25T05:15:40;100230.00;;;6.65;82.48
50282;BME280;36176;51.506;10.272;2024-01-25T05:18:12;100225.56;;;6.69;82.30
50282;BME280;36176;51.506;10.272;2024-01-25T05:20:40;100231.78;;;6.66;82.92
50282;BME280;36176;51.506;10.272;2024-01-25T05:23:07;100236.09;;;6.69;82.61
50282;BME280;36176;51.506;10.272;2024-01-25T05:25:34;100236.13;;;6.67;81.86
50282;BME280;36176;51.506;10.272;2024-01-25T05:28:01;100245.88;;;6.62;82.05
50282;BME280;36176;51.506;10.272;2024-01-25T05:30:29;100252.06;;;6.59;82.36
50282;BME280;36176;51.506;10.272;2024-01-25T05:32:56;100254.72;;;6.58;82.73
50282;BME280;36176;51.506;10.272;2024-01-25T05:35:23;100271.41;;;6.58;82.60
50282;BME280;36176;51.506;10.272;2024-01-25T05:37:51;100266.94;;;6.62;82.35
50282;BME280;36176;51.506;10.272;2024-01-25T05:40:18;100276.56;;;6.63;82.37
50282;BME280;36176;51.506;10.272;2024-01-25T05:42:46;100272.16;;;6.65;81.87
50282;BME280;36176;51.506;10.272;2024-01-25T05:45:13;100273.84;;;6.69;81.90
50282;BME280;36176;51.506;10.272;2024-01-25T05:47:40;100280.91;;;6.67;82.12
50282;BME280;36176;51.506;10.272;2024-01-25T05:50:08;100289.63;;;6.69;82.17
50282;BME280;36176;51.506;10.272;2024-01-25T05:52:35;100292.34;;;6.66;81.75
50282;BME280;36176;51.506;10.272;2024-01-25T05:55:03;100294.91;;;6.69;82.22
50282;BME280;36176;51.506;10.272;2024-01-25T05:57:32;100298.41;;;6.70;82.16
50282;BME280;36176;51.506;10.272;2024-01-25T06:00:02;100303.66;;;6.70;81.93
50282;BME280;36176;51.506;10.272;2024-01-25T06:02:30;100302.88;;;6.66;82.19
50282;BME280;36176;51.506;10.272;2024-01-25T06:04:57;100300.19;;;6.68;82.17
50282;BME280;36176;51.506;10.272;2024-01-25T06:07:25;100295.81;;;6.68;81.64
50282;BME280;36176;51.506;10.272;2024-01-25T06:09:53;100302.81;;;6.69;81.94
50282;BME280;36176;51.506;10.272;2024-01-25T06:12:20;100307.16;;;6.70;81.83
50282;BME280;36176;51.506;10.272;2024-01-25T06:14:47;100315.03;;;6.72;81.28
50282;BME280;36176;51.506;10.272;2024-01-25T06:17:15;100321.16;;;6.74;80.60
50282;BME280;36176;51.506;10.272;2024-01-25T06:19:42;100316.75;;;6.74;80.99
50282;BME280;36176;51.506;10.272;2024-01-25T06:22:09;100322.94;;;6.73;81.12
50282;BME280;36176;51.506;10.272;2024-01-25T06:24:36;100318.53;;;6.74;80.60
50282;BME280;36176;51.506;10.272;2024-01-25T06:27:04;100321.22;;;6.71;80.89
50282;BME280;36176;51.506;10.272;2024-01-25T06:29:31;100327.28;;;6.76;80.75
50282;BME280;36176;51.506;10.272;2024-01-25T06:31:58;100333.47;;;6.73;80.65
50282;BME280;36176;51.506;10.272;2024-01-25T06:34:26;100327.34;;;6.73;80.59
50282;BME280;36176;51.506;10.272;2024-01-25T06:36:53;100339.59;;;6.75;80.38
50282;BME280;36176;51.506;10.272;2024-01-25T06:39:20;100348.34;;;6.76;80.65
50282;BME280;36176;51.506;10.272;2024-01-25T06:41:48;100348.41;;;6.73;80.63
50282;BME280;36176;51.506;10.272;2024-01-25T06:44:16;100369.47;;;6.73;80.92
50282;BME280;36176;51.506;10.272;2024-01-25T06:46:43;100362.47;;;6.70;81.08
50282;BME280;36176;51.506;10.272;2024-01-25T06:49:10;100369.50;;;6.70;81.21
50282;BME280;36176;51.506;10.272;2024-01-25T06:51:37;100386.16;;;6.70;81.49
50282;BME280;36176;51.506;10.272;2024-01-25T06:54:05;100392.34;;;6.69;81.47
50282;BME280;36176;51.506;10.272;2024-01-25T06:56:32;100399.47;;;6.64;81.56
50282;BME280;36176;51.506;10.272;2024-01-25T06:58:59;100404.72;;;6.66;81.07
50282;BME280;36176;51.506;10.272;2024-01-25T07:01:26;100405.59;;;6.63;81.70
50282;BME280;36176;51.506;10.272;2024-01-25T07:03:54;100402.16;;;6.61;81.47
50282;BME280;36176;51.506;10.272;2024-01-25T07:06:21;100407.41;;;6.61;81.89
50282;BME280;36176;51.506;10.272;2024-01-25T07:08:49;100403.94;;;6.57;82.13
50282;BME280;36176;51.506;10.272;2024-01-25T07:11:16;100406.59;;;6.57;81.55
50282;BME280;36176;51.506;10.272;2024-01-25T07:13:44;100398.69;;;6.56;82.16
50282;BME280;36176;51.506;10.272;2024-01-25T07:16:11;100396.09;;;6.54;81.60
50282;BME280;36176;51.506;10.272;2024-01-25T07:18:38;100400.44;;;6.57;82.30
50282;BME280;36176;51.506;10.272;2024-01-25T07:21:06;100404.00;;;6.54;82.35
50282;BME280;36176;51.506;10.272;2024-01-25T07:23:33;100402.22;;;6.55;82.39
50282;BME280;36176;51.506;10.272;2024-01-25T07:26:01;100408.41;;;6.52;82.70
50282;BME280;36176;51.506;10.272;2024-01-25T07:28:28;100413.69;;;6.52;82.19
50282;BME280;36176;51.506;10.272;2024-01-25T07:30:55;100432.09;;;6.54;82.85
50282;BME280;36176;51.506;10.272;2024-01-25T07:33:22;100420.66;;;6.55;82.56
50282;BME280;36176;51.506;10.272;2024-01-25T07:35:50;100435.56;;;6.56;82.18
50282;BME280;36176;51.506;10.272;2024-01-25T07:38:17;100429.41;;;6.57;82.10
50282;BME280;36176;51.506;10.272;2024-01-25T07:40:44;100432.03;;;6.58;82.71
50282;BME280;36176;51.506;10.272;2024-01-25T07:43:12;100430.28;;;6.56;82.49
50282;BME280;36176;51.506;10.272;2024-01-25T07:45:39;100423.28;;;6.56;82.63
50282;BME280;36176;51.506;10.272;2024-01-25T07:48:07;100434.69;;;6.57;82.47
50282;BME280;36176;51.506;10.272;2024-01-25T07:50:41;100433.84;;;6.55;82.23
50282;BME280;36176;51.506;10.272;2024-01-25T07:53:09;100437.31;;;6.57;82.22
50282;BME280;36176;51.506;10.272;2024-01-25T07:55:36;100438.19;;;6.56;82.65
50282;BME280;36176;51.506;10.272;2024-01-25T07:58:04;100443.47;;;6.56;82.11
50282;BME280;36176;51.506;10.272;2024-01-25T08:00:31;100436.41;;;6.58;82.86
50282;BME280;36176;51.506;10.272;2024-01-25T08:02:58;100442.59;;;6.57;82.77
50282;BME280;36176;51.506;10.272;2024-01-25T08:05:25;100440.81;;;6.56;83.04
50282;BME280;36176;51.506;10.272;2024-01-25T08:08:06;100454.88;;;6.56;82.94
50282;BME280;36176;51.506;10.272;2024-01-25T08:10:34;100456.66;;;6.54;83.43
50282;BME280;36176;51.506;10.272;2024-01-25T08:13:01;100464.56;;;6.54;83.03
50282;BME280;36176;51.506;10.272;2024-01-25T08:15:34;100457.53;;;6.55;83.05
50282;BME280;36176;51.506;10.272;2024-01-25T08:18:01;100451.34;;;6.56;82.28
50282;BME280;36176;51.506;10.272;2024-01-25T08:20:32;100452.25;;;6.56;82.69
50282;BME280;36176;51.506;10.272;2024-01-25T08:23:02;100453.97;;;6.57;82.98
50282;BME280;36176;51.506;10.272;2024-01-25T08:25:30;100442.56;;;6.58;83.15
50282;BME280;36176;51.506;10.272;2024-01-25T08:27:57;100438.09;;;6.64;82.59
50282;BME280;36176;51.506;10.272;2024-01-25T08:30:24;100446.84;;;6.66;82.63
50282;BME280;36176;51.506;10.272;2024-01-25T08:32:51;100439.75;;;6.68;82.57
50282;BME280;36176;51.506;10.272;2024-01-25T08:35:19;100444.16;;;6.69;82.78
50282;BME280;36176;51.506;10.272;2024-01-25T08:37:46;100458.19;;;6.69;82.40
50282;BME280;36176;51.506;10.272;2024-01-25T08:40:13;100457.28;;;6.72;82.86
50282;BME280;36176;51.506;10.272;2024-01-25T08:42:42;100454.63;;;6.73;82.74
50282;BME280;36176;51.506;10.272;2024-01-25T08:45:09;100461.69;;;6.71;82.70
50282;BME280;36176;51.506;10.272;2024-01-25T08:47:38;100466.03;;;6.74;82.97
50282;BME280;36176;51.506;10.272;2024-01-25T08:50:06;100468.59;;;6.78;82.68
50282;BME280;36176;51.506;10.272;2024-01-25T08:52:34;100468.59;;;6.78;82.81
50282;BME280;36176;51.506;10.272;2024-01-25T08:55:01;100470.31;;;6.79;82.94
50282;BME280;36176;51.506;10.272;2024-01-25T08:57:28;100474.72;;;6.80;82.29
50282;BME280;36176;51.506;10.272;2024-01-25T08:59:55;100487.81;;;6.84;82.39
50282;BME280;36176;51.506;10.272;2024-01-25T09:02:22;100486.97;;;6.83;81.77
50282;BME280;36176;51.506;10.272;2024-01-25T09:04:50;100491.34;;;6.82;81.46
50282;BME280;36176;51.506;10.272;2024-01-25T09:07:17;100505.41;;;6.81;82.13
50282;BME280;36176;51.506;10.272;2024-01-25T09:09:44;100511.47;;;6.88;81.99
50282;BME280;36176;51.506;10.272;2024-01-25T09:12:11;100502.63;;;6.92;81.56
50282;BME280;36176;51.506;10.272;2024-01-25T09:14:39;100506.84;;;7.01;81.88
50282;BME280;36176;51.506;10.272;2024-01-25T09:17:06;100516.41;;;7.08;80.94
50282;BME280;36176;51.506;10.272;2024-01-25T09:19:33;100511.03;;;7.14;80.62
50282;BME280;36176;51.506;10.272;2024-01-25T09:22:02;100506.56;;;7.19;80.42
50282;BME280;36176;51.506;10.272;2024-01-25T09:24:30;100523.16;;;7.26;80.86
50282;BME280;36176;51.506;10.272;2024-01-25T09:26:58;100518.66;;;7.31;80.25
50282;BME280;36176;51.506;10.272;2024-01-25T09:29:26;100523.16;;;7.26;79.32
50282;BME280;36176;51.506;10.272;2024-01-25T09:31:54;100528.44;;;7.26;79.15
50282;BME280;36176;51.506;10.272;2024-01-25T09:34:21;100532.78;;;7.29;79.87
50282;BME280;36176;51.506;10.272;2024-01-25T09:36:49;100539.75;;;7.33;79.82
50282;BME280;36176;51.506;10.272;2024-01-25T09:39:17;100544.03;;;7.38;78.83
50282;BME280;36176;51.506;10.272;2024-01-25T09:41:45;100539.63;;;7.39;78.28
50282;BME280;36176;51.506;10.272;2024-01-25T09:44:13;100542.03;;;7.53;78.39
50282;BME280;36176;51.506;10.272;2024-01-25T09:46:41;100547.94;;;7.65;78.42
50282;BME280;36176;51.506;10.272;2024-01-25T09:49:09;100548.47;;;7.84;76.79
50282;BME280;36176;51.506;10.272;2024-01-25T09:51:38;100547.69;;;7.81;77.07
50282;BME280;36176;51.506;10.272;2024-01-25T09:54:07;100554.69;;;7.80;76.75
50282;BME280;36176;51.506;10.272;2024-01-25T09:56:34;100557.31;;;7.83;76.72
50282;BME280;36176;51.506;10.272;2024-01-25T09:59:02;100572.38;;;7.77;76.34
50282;BME280;36176;51.506;10.272;2024-01-25T10:01:29;100575.16;;;7.69;76.12
50282;BME280;36176;51.506;10.272;2024-01-25T10:03:57;100580.22;;;7.80;76.32
50282;BME280;36176;51.506;10.272;2024-01-25T10:06:24;100580.06;;;7.87;75.70
50282;BME280;36176;51.506;10.272;2024-01-25T10:08:52;100572.78;;;8.02;75.28
50282;BME280;36176;51.506;10.272;2024-01-25T10:11:20;100570.56;;;8.25;75.52
50282;BME280;36176;51.506;10.272;2024-01-25T10:13:47;100564.03;;;8.45;74.53
50282;BME280;36176;51.506;10.272;2024-01-25T10:16:18;100563.66;;;8.62;74.34
50282;BME280;36176;51.506;10.272;2024-01-25T10:18:46;100559.31;;;8.59;72.14
50282;BME280;36176;51.506;10.272;2024-01-25T10:21:15;100556.47;;;8.26;72.70
50282;BME280;36176;51.506;10.272;2024-01-25T10:23:46;100562.00;;;8.14;73.61
50282;BME280;36176;51.506;10.272;2024-01-25T10:26:15;100564.03;;;8.00;73.66
50282;BME280;36176;51.506;10.272;2024-01-25T10:28:50;100568.66;;;7.87;73.72
50282;BME280;36176;51.506;10.272;2024-01-25T10:31:17;100570.59;;;7.77;74.70
50282;BME280;36176;51.506;10.272;2024-01-25T10:33:46;100577.66;;;7.77;75.06
50282;BME280;36176;51.506;10.272;2024-01-25T10:36:14;100583.78;;;7.77;75.65
50282;BME280;36176;51.506;10.272;2024-01-25T10:38:44;100585.56;;;7.75;75.55
50282;BME280;36176;51.506;10.272;2024-01-25T10:41:13;100586.47;;;7.76;75.33
50282;BME280;36176;51.506;10.272;2024-01-25T10:43:40;100585.47;;;7.83;75.95
50282;BME280;36176;51.506;10.272;2024-01-25T10:46:08;100578.28;;;7.89;75.95
50282;BME280;36176;51.506;10.272;2024-01-25T10:48:37;100584.25;;;7.99;75.65
50282;BME280;36176;51.506;10.272;2024-01-25T10:51:14;100581.34;;;8.13;76.77
50282;BME280;36176;51.506;10.272;2024-01-25T10:53:43;100581.94;;;8.29;77.21
50282;BME280;36176;51.506;10.272;2024-01-25T10:56:10;100580.91;;;8.36;75.32
50282;BME280;36176;51.506;10.272;2024-01-25T10:58:40;100588.94;;;8.30;76.09
50282;BME280;36176;51.506;10.272;2024-01-25T11:01:09;100591.69;;;8.25;75.87
50282;BME280;36176;51.506;10.272;2024-01-25T11:03:39;100594.44;;;8.19;75.75
50282;BME280;36176;51.506;10.272;2024-01-25T11:06:08;100584.94;;;8.10;75.91
50282;BME280;36176;51.506;10.272;2024-01-25T11:08:39;100577.13;;;8.04;75.98
50282;BME280;36176;51.506;10.272;2024-01-25T11:11:08;100587.72;;;8.03;75.71
50282;BME280;36176;51.506;10.272;2024-01-25T11:13:35;100588.44;;;8.11;75.79
50282;BME280;36176;51.506;10.272;2024-01-25T11:16:16;100581.69;;;8.43;75.69
50282;BME280;36176;51.506;10.272;2024-01-25T11:18:51;100588.59;;;8.50;74.67
50282;BME280;36176;51.506;10.272;2024-01-25T11:21:38;100580.50;;;8.58;74.36
50282;BME280;36176;51.506;10.272;2024-01-25T11:24:14;100588.53;;;8.51;74.18
50282;BME280;36176;51.506;10.272;2024-01-25T11:26:43;100574.44;;;8.52;74.28
50282;BME280;36176;51.506;10.272;2024-01-25T11:29:13;100575.31;;;8.53;73.22
50282;BME280;36176;51.506;10.272;2024-01-25T11:31:42;100567.56;;;8.45;73.40
50282;BME280;36176;51.506;10.272;2024-01-25T11:34:11;100574.88;;;8.31;73.21
50282;BME280;36176;51.506;10.272;2024-01-25T11:36:39;100574.13;;;8.23;74.58
50282;BME280;36176;51.506;10.272;2024-01-25T11:39:06;100574.97;;;8.25;74.54
50282;BME280;36176;51.506;10.272;2024-01-25T11:41:33;100577.69;;;8.20;74.69
50282;BME280;36176;51.506;10.272;2024-01-25T11:44:01;100577.72;;;8.19;75.07
50282;BME280;36176;51.506;10.272;2024-01-25T11:46:30;100577.00;;;8.12;74.39
50282;BME280;36176;51.506;10.272;2024-01-25T11:48:59;100579.81;;;8.03;74.43
50282;BME280;36176;51.506;10.272;2024-01-25T11:51:27;100578.94;;;8.02;74.85
50282;BME280;36176;51.506;10.272;2024-01-25T11:53:55;100567.41;;;8.06;74.23
50282;BME280;36176;51.506;10.272;2024-01-25T11:56:27;100562.88;;;8.15;73.82
50282;BME280;36176;51.506;10.272;2024-01-25T11:58:55;100564.41;;;8.25;73.77
50282;BME280;36176;51.506;10.272;2024-01-25T12:01:26;100555.22;;;8.44;73.68
50282;BME280;36176;51.506;10.272;2024-01-25T12:03:54;100553.09;;;8.62;72.46
50282;BME280;36176;51.506;10.272;2024-01-25T12:06:21;100561.66;;;8.73;71.93
50282;BME280;36176;51.506;10.272;2024-01-25T12:08:49;100565.78;;;8.86;70.89
50282;BME280;36176;51.506;10.272;2024-01-25T12:11:17;100560.44;;;8.88;71.29
50282;BME280;36176;51.506;10.272;2024-01-25T12:13:45;100564.03;;;8.85;71.29
50282;BME280;36176;51.506;10.272;2024-01-25T12:16:12;100565.88;;;8.82;72.06
50282;BME280;36176;51.506;10.272;2024-01-25T12:18:41;100565.88;;;8.82;72.15
50282;BME280;36176;51.506;10.272;2024-01-25T12:21:10;100562.47;;;8.77;72.34
50282;BME280;36176;51.506;10.272;2024-01-25T12:23:38;100568.75;;;8.71;72.35
50282;BME280;36176;51.506;10.272;2024-01-25T12:26:07;100562.63;;;8.69;72.07
50282;BME280;36176;51.506;10.272;2024-01-25T12:28:35;100568.09;;;8.61;71.24
50282;BME280;36176;51.506;10.272;2024-01-25T12:31:04;100562.09;;;8.53;71.96
50282;BME280;36176;51.506;10.272;2024-01-25T12:33:33;100555.97;;;8.51;72.69
50282;BME280;36176;51.506;10.272;2024-01-25T12:36:02;100557.94;;;8.41;71.98
50282;BME280;36176;51.506;10.272;2024-01-25T12:38:31;100549.22;;;8.36;72.75
50282;BME280;36176;51.506;10.272;2024-01-25T12:40:58;100549.94;;;8.44;73.27
50282;BME280;36176;51.506;10.272;2024-01-25T12:43:25;100547.25;;;8.47;71.78
50282;BME280;36176;51.506;10.272;2024-01-25T12:45:53;100550.03;;;8.41;71.80
50282;BME280;36176;51.506;10.272;2024-01-25T12:48:29;100534.09;;;8.44;72.32
50282;BME280;36176;51.506;10.272;2024-01-25T12:50:57;100533.06;;;8.51;72.66
50282;BME280;36176;51.506;10.272;2024-01-25T12:53:24;100526.84;;;8.54;72.58